CheckWX is a tool to help pilots better visualize weather data.  It is not intended as a substitute for an official pre-flight weather briefing.

11:16:05 UTC

KRND METAR
Randolph AFB Airport
Universal City, Texas, USA
Current

20 mins ago

KRND 181056Z AUTO 21005KT 10SM BKN009 OVC120 16/15 A2975 RMK AO2 RAE0957DZB0957E0958 CIG 008 RWY33R SLP068 P0000 T01550145
Observed
Apr-18 @ 10:56 UTC
Wind
  • 210° at 5 KTS
Visibility
10 SM
Flight Rules
IFR
Cloud Levels
  • Broken at 900' AGL
  • Overcast at 12,000' AGL
Temperature
16°C / 61°F
Dewpoint
15°C / 59°F
Humidity
94%
Altimeter
29.75" Hg
Pressure
1006.8 hPa
Current Rain
0.01"
Previous

33 mins ago

KRND 181043Z AUTO 21005KT 10SM BKN009 BKN120 15/14 A2976 RMK AO2 RAE0957DZB0957E0958 CIG 009V120 BKN009 V FEW PRESRR SLP072
Observed
Apr-18 @ 10:43 UTC
Wind
  • 210° at 5 KTS
Visibility
10 SM
Flight Rules
IFR
Cloud Levels
  • Broken at 900' AGL
  • Broken at 12,000' AGL
Temperature
15°C / 59°F
Dewpoint
14°C / 57°F
Humidity
94%
Altimeter
29.76" Hg
Pressure
1007.2 hPa
Previous

1 hour ago

KRND 180958Z AUTO 09011KT 10SM SCT055 SCT070 BKN085 15/14 A2968 RMK AO2 RAE57DZB57E58 SLP045
Observed
Apr-18 @ 09:58 UTC
Wind
  • 090° at 11 KTS
Visibility
10 SM
Flight Rules
VFR
Cloud Levels
  • Scattered at 5,500' AGL
  • Scattered at 7,000' AGL
  • Broken at 8,500' AGL
Temperature
15°C / 59°F
Dewpoint
14°C / 57°F
Humidity
94%
Altimeter
29.68" Hg
Pressure
1004.5 hPa